Time;durP1;ratioP1;P1;durP2;ratioP2;P2;SDS_P1;SDS_P2;PMS_P1;PMS_P2;Temp;Humidity;BMP_temperature;BMP_pressure;BME280_temperature;BME280_humidity;BME280_pressure;Samples;Min_cycle;Max_cycle;Signal;HPM_P1;HPM_P2
2023/06/10 00:00:26;;;;;;;;;;;12.00;84.70;;;;;;5003930;28;19998;-73
2023/06/10 00:02:53;;;;;;;;;;;12.00;85.20;;;;;;4997743;28;19936;-72
2023/06/10 00:05:21;;;;;;;;;;;12.00;85.20;;;;;;5002373;28;19929;-72
2023/06/10 00:07:49;;;;;;;;;;;12.00;85.10;;;;;;5009022;28;20547;-72
2023/06/10 00:10:16;;;;;;;;;;;12.00;85.60;;;;;;5015578;28;20290;-72
2023/06/10 00:12:43;;;;;;;;;;;12.00;85.60;;;;;;5003503;28;19991;-72
2023/06/10 00:15:10;;;;;;;;;;;11.90;85.10;;;;;;4992765;28;20404;-72
2023/06/10 00:17:38;;;;;;;;;;;12.00;85.40;;;;;;5008430;28;20650;-73
2023/06/10 00:20:08;;;;;;;;;;;11.90;85.20;;;;;;5002020;28;20366;-72
2023/06/10 00:22:36;;;;;;;;;;;12.00;85.40;;;;;;4998608;28;19936;-72
2023/06/10 00:25:03;;;;;;;;;;;12.00;85.60;;;;;;5015077;28;20033;-72
2023/06/10 00:27:34;;;;;;;;;;;12.00;85.60;;;;;;5011542;28;20440;-72
2023/06/10 00:30:06;;;;;;;;;;;11.90;85.70;;;;;;5002977;28;20500;-72
2023/06/10 00:32:34;;;;;;;;;;;12.00;85.10;;;;;;5012884;28;19933;-72
2023/06/10 00:35:01;;;;;;;;;;;11.90;85.20;;;;;;5017305;28;19929;-72
2023/06/10 00:37:29;;;;;;;;;;;11.90;85.20;;;;;;4999161;28;19929;-72
2023/06/10 00:39:55;;;;;;;;;;;11.80;85.10;;;;;;5007098;28;20456;-72
2023/06/10 00:42:24;;;;;;;;;;;11.80;85.40;;;;;;5004540;28;19932;-72
2023/06/10 00:44:51;;;;;;;;;;;11.80;85.30;;;;;;5007648;28;20064;-72
2023/06/10 00:47:18;;;;;;;;;;;11.80;85.60;;;;;;5004457;28;19930;-72
2023/06/10 00:49:45;;;;;;;;;;;11.80;85.40;;;;;;5004628;28;19934;-72
2023/06/10 00:52:13;;;;;;;;;;;11.80;85.70;;;;;;4983913;28;19972;-72
2023/06/10 00:54:40;;;;;;;;;;;11.80;85.90;;;;;;5005561;28;19998;-72
2023/06/10 00:57:07;;;;;;;;;;;11.80;85.90;;;;;;4994020;28;19929;-72
2023/06/10 00:59:34;;;;;;;;;;;11.80;86.10;;;;;;4991339;28;19999;-72
2023/06/10 01:02:02;;;;;;;;;;;11.80;85.70;;;;;;5005980;28;20044;-72
2023/06/10 01:04:29;;;;;;;;;;;11.80;86.10;;;;;;5012615;28;19999;-72
2023/06/10 01:07:02;;;;;;;;;;;11.80;86.50;;;;;;5014314;28;19929;-72
2023/06/10 01:09:37;;;;;;;;;;;11.70;86.40;;;;;;5006892;28;19972;-72
2023/06/10 01:12:10;;;;;;;;;;;11.80;86.60;;;;;;5003718;28;20302;-72
2023/06/10 01:14:38;;;;;;;;;;;11.80;86.20;;;;;;5004172;28;19929;-72
2023/06/10 01:17:06;;;;;;;;;;;11.70;86.00;;;;;;4986016;28;20721;-72
2023/06/10 01:19:33;;;;;;;;;;;11.70;86.20;;;;;;5004272;28;19980;-72
2023/06/10 01:22:00;;;;;;;;;;;11.70;86.10;;;;;;5006053;28;20329;-73
2023/06/10 01:24:28;;;;;;;;;;;11.70;85.90;;;;;;4982678;28;20016;-72
2023/06/10 01:26:59;;;;;;;;;;;11.70;85.90;;;;;;5013260;28;20007;-72
2023/06/10 01:29:30;;;;;;;;;;;11.70;86.00;;;;;;4998148;28;20807;-72
2023/06/10 01:32:00;;;;;;;;;;;11.70;86.40;;;;;;5010612;28;20545;-72
2023/06/10 01:34:28;;;;;;;;;;;11.70;85.80;;;;;;5003155;28;19936;-72
2023/06/10 01:36:55;;;;;;;;;;;11.60;85.70;;;;;;5014050;28;19929;-72
2023/06/10 01:39:23;;;;;;;;;;;11.60;86.40;;;;;;5003469;28;20927;-72
2023/06/10 01:41:51;;;;;;;;;;;11.60;86.10;;;;;;5019918;28;19930;-72
2023/06/10 01:44:22;;;;;;;;;;;11.50;86.30;;;;;;4985655;28;20377;-72
2023/06/10 01:46:49;;;;;;;;;;;11.50;86.20;;;;;;4985354;28;19929;-72
2023/06/10 01:49:16;;;;;;;;;;;11.50;86.20;;;;;;5002685;28;19929;-72
2023/06/10 01:51:42;;;;;;;;;;;11.50;86.50;;;;;;4997453;28;19992;-72
2023/06/10 01:54:09;;;;;;;;;;;11.50;87.20;;;;;;5021991;28;20299;-72
2023/06/10 01:56:36;;;;;;;;;;;11.50;86.80;;;;;;4988515;28;20024;-72
2023/06/10 01:59:02;;;;;;;;;;;11.40;86.90;;;;;;4998423;28;19933;-72
2023/06/10 02:01:29;;;;;;;;;;;11.40;86.60;;;;;;5006606;28;20012;-72
2023/06/10 02:03:56;;;;;;;;;;;11.40;87.20;;;;;;5017815;28;19929;-72
2023/06/10 02:06:23;;;;;;;;;;;11.40;87.10;;;;;;5001422;28;19929;-72
2023/06/10 02:08:50;;;;;;;;;;;11.40;87.10;;;;;;5008113;28;19929;-72
2023/06/10 02:11:17;;;;;;;;;;;11.40;87.20;;;;;;5001846;28;19944;-72
2023/06/10 02:13:44;;;;;;;;;;;11.40;87.70;;;;;;5015999;28;19936;-72
2023/06/10 02:16:12;;;;;;;;;;;11.40;88.00;;;;;;5010028;28;19935;-72
2023/06/10 02:18:42;;;;;;;;;;;11.40;87.60;;;;;;5000444;28;19929;-72
2023/06/10 02:21:10;;;;;;;;;;;11.40;87.60;;;;;;5001039;28;20991;-72
2023/06/10 02:23:36;;;;;;;;;;;11.40;88.00;;;;;;4984707;28;20507;-72
2023/06/10 02:26:03;;;;;;;;;;;11.40;88.00;;;;;;5008457;28;20388;-72
2023/06/10 02:28:30;;;;;;;;;;;11.40;88.10;;;;;;5014863;28;19929;-72
2023/06/10 02:30:58;;;;;;;;;;;11.40;87.80;;;;;;4998590;28;20016;-72
2023/06/10 02:33:25;;;;;;;;;;;11.30;88.50;;;;;;4983119;28;20562;-72
2023/06/10 02:35:52;;;;;;;;;;;11.40;87.90;;;;;;4992089;28;19929;-71
2023/06/10 02:38:19;;;;;;;;;;;11.30;87.80;;;;;;4988435;28;19929;-72
2023/06/10 02:40:46;;;;;;;;;;;11.30;88.10;;;;;;5018126;28;19937;-72
2023/06/10 02:43:12;;;;;;;;;;;11.30;88.30;;;;;;5010508;28;19935;-72
2023/06/10 02:45:40;;;;;;;;;;;11.30;88.80;;;;;;5009273;28;20353;-72
2023/06/10 02:48:06;;;;;;;;;;;11.30;88.90;;;;;;4989862;28;20642;-72
2023/06/10 02:50:33;;;;;;;;;;;11.30;89.70;;;;;;5001065;28;20767;-72
2023/06/10 02:53:00;;;;;;;;;;;11.30;89.50;;;;;;5005075;28;19935;-72
2023/06/10 02:55:27;;;;;;;;;;;11.30;89.10;;;;;;5026311;28;19933;-72
2023/06/10 02:57:54;;;;;;;;;;;11.30;89.30;;;;;;5002963;28;19935;-72
2023/06/10 03:00:21;;;;;;;;;;;11.30;89.40;;;;;;5016010;28;20027;-71
2023/06/10 03:02:48;;;;;;;;;;;11.30;88.80;;;;;;4991007;28;19929;-71
2023/06/10 03:05:16;;;;;;;;;;;11.40;89.10;;;;;;5021171;28;20396;-71
2023/06/10 03:07:43;;;;;;;;;;;11.40;89.10;;;;;;4990551;28;19936;-71
2023/06/10 03:10:10;;;;;;;;;;;11.40;89.20;;;;;;5013146;28;19925;-71
2023/06/10 03:12:37;;;;;;;;;;;11.40;89.40;;;;;;5018371;28;19936;-71
2023/06/10 03:15:04;;;;;;;;;;;11.40;89.30;;;;;;5003082;28;19929;-72
2023/06/10 03:17:32;;;;;;;;;;;11.50;89.80;;;;;;5012848;28;20052;-72
2023/06/10 03:19:58;;;;;;;;;;;11.50;89.40;;;;;;5008511;28;19982;-72
2023/06/10 03:22:25;;;;;;;;;;;11.50;89.20;;;;;;4991317;28;20377;-72
2023/06/10 03:24:53;;;;;;;;;;;11.50;89.90;;;;;;5019425;28;20400;-72
2023/06/10 03:27:20;;;;;;;;;;;11.60;89.80;;;;;;4993643;28;19972;-72
2023/06/10 03:29:46;;;;;;;;;;;11.60;89.80;;;;;;5017260;28;19936;-72
2023/06/10 03:32:13;;;;;;;;;;;11.60;89.80;;;;;;4991587;28;19934;-72
2023/06/10 03:34:40;;;;;;;;;;;11.60;89.60;;;;;;5005534;28;19929;-72
2023/06/10 03:37:07;;;;;;;;;;;11.70;89.60;;;;;;5003368;28;20035;-72
2023/06/10 03:39:34;;;;;;;;;;;11.60;89.40;;;;;;4991616;28;19929;-72
2023/06/10 03:42:00;;;;;;;;;;;11.70;89.80;;;;;;4986856;28;19930;-72
2023/06/10 03:44:27;;;;;;;;;;;11.70;89.80;;;;;;4981630;28;20015;-72
2023/06/10 03:46:56;;;;;;;;;;;11.70;89.80;;;;;;5003081;28;19930;-72
2023/06/10 03:49:25;;;;;;;;;;;11.80;89.80;;;;;;5018761;28;20768;-72
2023/06/10 03:51:52;;;;;;;;;;;11.80;89.70;;;;;;5031274;28;19999;-72
2023/06/10 03:54:19;;;;;;;;;;;11.80;89.60;;;;;;5011311;28;19935;-72
2023/06/10 03:56:48;;;;;;;;;;;11.90;89.90;;;;;;5006997;28;20510;-72
2023/06/10 03:59:14;;;;;;;;;;;11.90;89.80;;;;;;5004718;28;19929;-72
2023/06/10 04:01:41;;;;;;;;;;;12.00;89.60;;;;;;4989841;28;20039;-72
2023/06/10 04:04:08;;;;;;;;;;;12.00;89.60;;;;;;4988170;28;19961;-72
2023/06/10 04:06:35;;;;;;;;;;;12.10;90.10;;;;;;5005069;28;19956;-72
2023/06/10 04:09:03;;;;;;;;;;;12.10;90.30;;;;;;5005568;28;20317;-72
2023/06/10 04:11:29;;;;;;;;;;;12.20;90.20;;;;;;4995278;28;20696;-72
2023/06/10 04:13:56;;;;;;;;;;;12.20;90.10;;;;;;5005500;28;19929;-72
2023/06/10 04:16:23;;;;;;;;;;;12.30;90.10;;;;;;5001283;28;19977;-72
2023/06/10 04:18:49;;;;;;;;;;;12.30;90.00;;;;;;5001979;28;20384;-72
2023/06/10 04:21:16;;;;;;;;;;;12.40;90.00;;;;;;4987261;28;19936;-72
2023/06/10 04:23:44;;;;;;;;;;;12.40;89.80;;;;;;5004600;28;19930;-72
2023/06/10 04:26:12;;;;;;;;;;;12.50;89.60;;;;;;5013244;28;19928;-72
2023/06/10 04:28:38;;;;;;;;;;;12.50;90.10;;;;;;5024533;28;20284;-71
2023/06/10 04:31:05;;;;;;;;;;;12.60;89.80;;;;;;5005070;28;19929;-72
2023/06/10 04:33:32;;;;;;;;;;;12.70;89.30;;;;;;5015635;28;20279;-72
2023/06/10 04:35:59;;;;;;;;;;;12.70;89.40;;;;;;5007106;28;19937;-72
2023/06/10 04:38:26;;;;;;;;;;;12.80;89.00;;;;;;5028940;28;20293;-72
2023/06/10 04:40:53;;;;;;;;;;;12.90;88.80;;;;;;4985212;28;20648;-72
2023/06/10 04:43:20;;;;;;;;;;;12.90;88.90;;;;;;5021972;28;19935;-72
2023/06/10 04:45:47;;;;;;;;;;;13.00;89.40;;;;;;5012392;28;19969;-72
2023/06/10 04:48:14;;;;;;;;;;;13.00;88.70;;;;;;5005865;28;20037;-72
2023/06/10 04:50:40;;;;;;;;;;;13.10;88.70;;;;;;5000967;28;19929;-72
2023/06/10 04:53:08;;;;;;;;;;;13.20;88.40;;;;;;5010708;28;19968;-72
2023/06/10 04:55:36;;;;;;;;;;;13.30;88.20;;;;;;4990723;28;20444;-71
2023/06/10 04:58:02;;;;;;;;;;;13.30;88.30;;;;;;5007306;28;20453;-71
2023/06/10 05:00:29;;;;;;;;;;;13.40;88.10;;;;;;5010986;28;20040;-71
2023/06/10 05:02:56;;;;;;;;;;;13.50;88.10;;;;;;5002500;28;20407;-72
2023/06/10 05:05:23;;;;;;;;;;;13.60;87.90;;;;;;5016750;28;19972;-72
2023/06/10 05:07:49;;;;;;;;;;;13.60;87.60;;;;;;5003351;28;20314;-71
2023/06/10 05:10:16;;;;;;;;;;;13.70;87.50;;;;;;4997075;28;19931;-71
2023/06/10 05:12:43;;;;;;;;;;;13.80;87.20;;;;;;5021298;28;20516;-72
2023/06/10 05:15:10;;;;;;;;;;;13.90;87.20;;;;;;4997783;28;20413;-72
2023/06/10 05:17:37;;;;;;;;;;;14.00;87.00;;;;;;5020127;28;19929;-72
2023/06/10 05:20:04;;;;;;;;;;;14.10;86.90;;;;;;4996948;28;20453;-72
2023/06/10 05:22:31;;;;;;;;;;;14.10;86.70;;;;;;5018345;28;20337;-72
2023/06/10 05:24:58;;;;;;;;;;;14.20;86.60;;;;;;5010775;28;19996;-72
2023/06/10 05:27:25;;;;;;;;;;;14.30;86.50;;;;;;4993591;28;20019;-72
2023/06/10 05:29:52;;;;;;;;;;;14.40;85.80;;;;;;5004654;28;20008;-72
2023/06/10 05:32:18;;;;;;;;;;;14.50;85.60;;;;;;5011015;28;20409;-72
2023/06/10 05:34:45;;;;;;;;;;;14.60;85.30;;;;;;5017264;28;19929;-72
2023/06/10 05:37:12;;;;;;;;;;;14.70;84.80;;;;;;5008705;28;19929;-71
2023/06/10 05:39:39;;;;;;;;;;;14.80;84.80;;;;;;5007512;28;20465;-72
2023/06/10 05:42:06;;;;;;;;;;;14.90;84.10;;;;;;5008697;28;19937;-72
2023/06/10 05:44:33;;;;;;;;;;;15.00;83.50;;;;;;5018073;28;19937;-74
2023/06/10 05:47:00;;;;;;;;;;;15.10;83.40;;;;;;5008014;28;19930;-71
2023/06/10 05:49:27;;;;;;;;;;;15.20;83.30;;;;;;5017834;28;19935;-72
2023/06/10 05:51:55;;;;;;;;;;;15.30;81.90;;;;;;5018151;28;19940;-71
2023/06/10 05:54:22;;;;;;;;;;;15.40;81.80;;;;;;5008134;28;19976;-73
2023/06/10 05:56:49;;;;;;;;;;;15.50;81.50;;;;;;4992889;28;19952;-73
2023/06/10 05:59:16;;;;;;;;;;;15.60;81.20;;;;;;4995630;28;19929;-74
2023/06/10 06:01:43;;;;;;;;;;;15.70;81.20;;;;;;5013184;28;20007;-73
2023/06/10 06:04:09;;;;;;;;;;;15.90;80.00;;;;;;5011010;28;19929;-73
2023/06/10 06:06:38;;;;;;;;;;;16.00;80.30;;;;;;5001020;28;19937;-73
2023/06/10 06:09:05;;;;;;;;;;;16.10;79.20;;;;;;5016263;28;19936;-74
2023/06/10 06:11:33;;;;;;;;;;;16.30;79.40;;;;;;4986606;28;19933;-73
2023/06/10 06:13:59;;;;;;;;;;;16.60;78.00;;;;;;4999164;28;19929;-73
2023/06/10 06:16:26;;;;;;;;;;;16.80;77.60;;;;;;5002884;28;19932;-73
2023/06/10 06:18:53;;;;;;;;;;;17.00;76.40;;;;;;5002095;28;19933;-74
2023/06/10 06:21:20;;;;;;;;;;;17.30;75.90;;;;;;5007161;28;20380;-73
2023/06/10 06:23:46;;;;;;;;;;;17.60;74.90;;;;;;5009196;28;19937;-73
2023/06/10 06:26:13;;;;;;;;;;;17.80;74.10;;;;;;4994702;28;19952;-73
2023/06/10 06:28:40;;;;;;;;;;;18.10;73.30;;;;;;5010208;28;19929;-73
2023/06/10 06:31:07;;;;;;;;;;;18.30;72.00;;;;;;5019478;28;20010;-72
2023/06/10 06:33:33;;;;;;;;;;;18.60;71.90;;;;;;5000446;28;19960;-73
2023/06/10 06:36:00;;;;;;;;;;;18.80;69.80;;;;;;5003231;28;20461;-73
2023/06/10 06:38:27;;;;;;;;;;;19.10;69.70;;;;;;4993579;28;19973;-71
2023/06/10 06:40:54;;;;;;;;;;;19.40;68.70;;;;;;5008028;28;19939;-73
2023/06/10 06:43:20;;;;;;;;;;;19.50;67.70;;;;;;5007414;28;20028;-73
2023/06/10 06:45:47;;;;;;;;;;;19.70;67.50;;;;;;5007438;28;19929;-73
2023/06/10 06:48:14;;;;;;;;;;;19.90;66.40;;;;;;5009552;28;19940;-73
2023/06/10 06:50:41;;;;;;;;;;;20.00;66.70;;;;;;5031059;28;19929;-73
2023/06/10 06:53:08;;;;;;;;;;;20.10;65.60;;;;;;5010592;28;20308;-73
2023/06/10 06:55:35;;;;;;;;;;;20.00;65.90;;;;;;4994709;28;19976;-73
2023/06/10 06:58:03;;;;;;;;;;;20.10;66.00;;;;;;4988655;28;19960;-73
2023/06/10 07:00:31;;;;;;;;;;;20.20;68.50;;;;;;5006679;28;20426;-73
2023/06/10 07:02:58;;;;;;;;;;;20.40;68.00;;;;;;4990118;28;19929;-77
2023/06/10 07:05:27;;;;;;;;;;;20.60;68.10;;;;;;4990383;28;19930;-73
2023/06/10 07:07:55;;;;;;;;;;;20.50;66.20;;;;;;4993478;28;19933;-73
2023/06/10 07:10:22;;;;;;;;;;;20.70;65.50;;;;;;5005851;28;20264;-74
2023/06/10 07:12:49;;;;;;;;;;;20.90;65.60;;;;;;5006731;28;19933;-75
2023/06/10 07:15:16;;;;;;;;;;;20.90;64.60;;;;;;5007885;28;19930;-75
2023/06/10 07:17:43;;;;;;;;;;;21.00;64.80;;;;;;4991318;28;19937;-75
2023/06/10 07:20:10;;;;;;;;;;;21.00;64.30;;;;;;5007572;28;20684;-75
2023/06/10 07:22:39;;;;;;;;;;;21.10;66.10;;;;;;4997338;28;20012;-75
2023/06/10 07:25:05;;;;;;;;;;;21.40;65.20;;;;;;5005043;28;19930;-74
2023/06/10 07:27:36;;;;;;;;;;;21.80;63.40;;;;;;4995852;28;20319;-75
2023/06/10 07:30:05;;;;;;;;;;;21.90;64.10;;;;;;5026427;28;19961;-75
2023/06/10 07:32:32;;;;;;;;;;;22.00;63.60;;;;;;4994063;28;19929;-74
2023/06/10 07:34:59;;;;;;;;;;;22.10;63.60;;;;;;5004154;28;19929;-74
2023/06/10 07:37:26;;;;;;;;;;;22.40;62.60;;;;;;5007820;28;20028;-74
2023/06/10 07:39:53;;;;;;;;;;;22.60;61.60;;;;;;4993213;28;19936;-75
2023/06/10 07:42:20;;;;;;;;;;;22.60;61.30;;;;;;4992056;28;19929;-75
2023/06/10 07:44:46;;;;;;;;;;;23.10;60.70;;;;;;5005897;28;19929;-75
2023/06/10 07:47:13;;;;;;;;;;;23.10;60.30;;;;;;5004472;28;19929;-75
2023/06/10 07:49:42;;;;;;;;;;;23.20;60.30;;;;;;5004578;28;19929;-74
2023/06/10 07:52:09;;;;;;;;;;;23.40;59.40;;;;;;5009835;28;19930;-81
2023/06/10 07:54:36;;;;;;;;;;;23.70;61.00;;;;;;4996416;28;19961;-75
2023/06/10 07:57:02;;;;;;;;;;;24.10;58.20;;;;;;5007505;28;20446;-74
2023/06/10 07:59:31;;;;;;;;;;;24.20;58.80;;;;;;5006666;28;20627;-75
2023/06/10 08:01:58;;;;;;;;;;;24.50;57.80;;;;;;4997484;28;19937;-73
2023/06/10 08:04:25;;;;;;;;;;;24.60;56.00;;;;;;5016118;28;20038;-79
2023/06/10 08:06:52;;;;;;;;;;;24.40;57.90;;;;;;4998797;28;20267;-80
2023/06/10 08:09:19;;;;;;;;;;;24.70;56.40;;;;;;4998326;28;19941;-78
2023/06/10 08:11:48;;;;;;;;;;;24.80;56.00;;;;;;5007391;28;19929;-79
2023/06/10 08:14:16;;;;;;;;;;;25.00;55.00;;;;;;5007927;28;19987;-79
2023/06/10 08:16:43;;;;;;;;;;;25.10;56.30;;;;;;5007244;28;19926;-79
2023/06/10 08:19:09;;;;;;;;;;;25.30;55.20;;;;;;4997786;28;19932;-78
2023/06/10 08:21:37;;;;;;;;;;;25.20;55.50;;;;;;5009220;28;20727;-77
2023/06/10 08:24:03;;;;;;;;;;;25.10;55.00;;;;;;5004824;28;19929;-78
2023/06/10 08:26:30;;;;;;;;;;;25.30;55.30;;;;;;5006432;28;19952;-77
2023/06/10 08:28:57;;;;;;;;;;;25.70;54.00;;;;;;4992810;28;20393;-79
2023/06/10 08:31:24;;;;;;;;;;;25.60;54.70;;;;;;4997463;28;20638;-78
2023/06/10 08:33:52;;;;;;;;;;;25.90;53.40;;;;;;5005152;28;19936;-79
2023/06/10 08:36:19;;;;;;;;;;;26.20;54.50;;;;;;5007501;28;20028;-80
2023/06/10 08:38:46;;;;;;;;;;;26.40;54.50;;;;;;5003739;28;20024;-77
2023/06/10 08:41:16;;;;;;;;;;;26.60;53.80;;;;;;4996608;28;19933;-77
2023/06/10 08:43:59;;;;;;;;;;;26.90;52.00;;;;;;5028340;28;20004;-79
2023/06/10 08:46:26;;;;;;;;;;;27.00;51.60;;;;;;5028265;28;19976;-78
2023/06/10 08:48:55;;;;;;;;;;;27.10;51.60;;;;;;5007932;28;20051;-78
2023/06/10 08:51:24;;;;;;;;;;;27.00;52.60;;;;;;5024393;28;19969;-72
2023/06/10 08:54:00;;;;;;;;;;;27.30;51.10;;;;;;4995227;28;19933;-71
2023/06/10 08:56:28;;;;;;;;;;;27.60;51.00;;;;;;5003674;28;19961;-72
2023/06/10 08:58:56;;;;;;;;;;;27.60;50.20;;;;;;5003582;28;20056;-73
2023/06/10 09:01:24;;;;;;;;;;;27.60;51.60;;;;;;5000516;28;19936;-73
2023/06/10 09:03:52;;;;;;;;;;;27.50;51.60;;;;;;4995268;28;19984;-72
2023/06/10 09:06:18;;;;;;;;;;;27.80;49.30;;;;;;5000739;28;19930;-72
2023/06/10 09:08:45;;;;;;;;;;;27.70;50.30;;;;;;5003904;28;20027;-73
2023/06/10 09:11:12;;;;;;;;;;;27.60;50.70;;;;;;5000562;28;20267;-72
2023/06/10 09:13:39;;;;;;;;;;;27.60;51.60;;;;;;5004285;28;19929;-72
2023/06/10 09:16:06;;;;;;;;;;;27.80;51.40;;;;;;5009020;28;20428;-73
2023/06/10 09:18:34;;;;;;;;;;;27.80;49.00;;;;;;4995489;28;19937;-73
2023/06/10 09:21:01;;;;;;;;;;;28.20;48.90;;;;;;4995687;28;20008;-73
2023/06/10 09:23:27;;;;;;;;;;;28.50;49.90;;;;;;5021475;28;19925;-73
2023/06/10 09:25:57;;;;;;;;;;;28.50;50.00;;;;;;5000823;28;20384;-72
2023/06/10 09:28:24;;;;;;;;;;;28.60;48.00;;;;;;5008955;28;19939;-73
2023/06/10 09:31:01;;;;;;;;;;;28.50;48.00;;;;;;4995182;28;19925;-72
2023/06/10 09:33:28;;;;;;;;;;;28.90;48.70;;;;;;5020069;28;19929;-72
2023/06/10 09:46:38;;;;;;;;;;;29.40;47.90;;;;;;4908665;28;19962;-73
2023/06/10 09:49:04;;;;;;;;;;;29.70;45.90;;;;;;5002501;28;20039;-72
2023/06/10 09:51:31;;;;;;;;;;;29.60;48.20;;;;;;5008401;28;19935;-74
2023/06/10 09:53:59;;;;;;;;;;;29.80;46.30;;;;;;5005155;28;19929;-73
2023/06/10 09:56:35;;;;;;;;;;;30.20;46.70;;;;;;5004172;28;19965;-74
2023/06/10 09:59:03;;;;;;;;;;;29.80;46.80;;;;;;5003599;28;19930;-74
2023/06/10 10:01:30;;;;;;;;;;;30.10;48.90;;;;;;5002719;28;20051;-73
2023/06/10 10:03:57;;;;;;;;;;;29.70;47.40;;;;;;4993014;28;19984;-72
2023/06/10 10:06:25;;;;;;;;;;;29.70;50.00;;;;;;4988721;28;19930;-72
2023/06/10 10:08:52;;;;;;;;;;;29.90;45.40;;;;;;4991730;28;19960;-74
2023/06/10 10:11:21;;;;;;;;;;;29.90;46.90;;;;;;5013757;28;19965;-74
2023/06/10 10:13:50;;;;;;;;;;;30.00;46.70;;;;;;5007735;28;19929;-73
2023/06/10 10:16:17;;;;;;;;;;;30.10;45.20;;;;;;5006800;28;20043;-73
2023/06/10 10:19:06;;;;;;;;;;;30.30;46.40;;;;;;5006083;28;19933;-72
2023/06/10 10:21:37;;;;;;;;;;;30.40;46.30;;;;;;5020510;28;20708;-73
2023/06/10 10:24:09;;;;;;;;;;;30.40;46.60;;;;;;5006228;28;20008;-72
2023/06/10 10:26:37;;;;;;;;;;;30.30;46.90;;;;;;5018849;28;19960;-73
2023/06/10 10:29:11;;;;;;;;;;;30.30;47.00;;;;;;4987872;28;20016;-73
2023/06/10 10:31:39;;;;;;;;;;;30.50;45.80;;;;;;4986790;28;19938;-73
2023/06/10 10:34:08;;;;;;;;;;;30.90;45.80;;;;;;5003509;28;20340;-73
2023/06/10 10:36:35;;;;;;;;;;;31.00;45.70;;;;;;4998942;28;19977;-74
2023/06/10 10:39:03;;;;;;;;;;;31.30;45.50;;;;;;5007905;28;20033;-75
2023/06/10 10:41:31;;;;;;;;;;;31.50;44.90;;;;;;5003333;28;19933;-74
2023/06/10 10:43:58;;;;;;;;;;;31.60;45.30;;;;;;4994160;28;19936;-74
2023/06/10 10:46:25;;;;;;;;;;;31.60;46.60;;;;;;5005699;28;19933;-76
2023/06/10 10:48:53;;;;;;;;;;;31.80;44.60;;;;;;5009386;28;19929;-76
2023/06/10 10:51:22;;;;;;;;;;;32.10;44.20;;;;;;4992583;28;19979;-74
2023/06/10 10:54:07;;;;;;;;;;;32.20;44.50;;;;;;4991682;28;19929;-72
2023/06/10 10:56:34;;;;;;;;;;;32.20;43.50;;;;;;5010682;28;19933;-72
2023/06/10 10:59:05;;;;;;;;;;;32.10;43.20;;;;;;4991683;28;19925;-73
2023/06/10 11:01:42;;;;;;;;;;;32.50;42.70;;;;;;5000334;28;20520;-72
2023/06/10 11:04:09;;;;;;;;;;;32.40;42.40;;;;;;5011281;28;19929;-73
2023/06/10 11:06:36;;;;;;;;;;;32.50;43.30;;;;;;5001310;28;19926;-70
2023/06/10 11:09:22;;;;;;;;;;;32.40;43.80;;;;;;5002010;28;19935;-71
2023/06/10 11:11:50;;;;;;;;;;;32.40;42.80;;;;;;5004453;28;19936;-71
2023/06/10 11:14:28;;;;;;;;;;;32.30;43.20;;;;;;5005802;28;20617;-71
2023/06/10 11:16:58;;;;;;;;;;;32.30;43.20;;;;;;5002944;28;19940;-71
2023/06/10 11:19:32;;;;;;;;;;;32.40;43.20;;;;;;5003022;28;19933;-71
2023/06/10 11:22:06;;;;;;;;;;;32.70;42.40;;;;;;4996202;28;19976;-71
2023/06/10 11:24:33;;;;;;;;;;;32.30;42.30;;;;;;5036488;28;19929;-73
2023/06/10 11:27:16;;;;;;;;;;;32.00;43.00;;;;;;4994792;28;19930;-71
2023/06/10 11:30:03;;;;;;;;;;;31.90;43.40;;;;;;5011607;28;19929;-71
2023/06/10 11:32:34;;;;;;;;;;;32.00;43.40;;;;;;5001458;28;19929;-73
2023/06/10 11:35:04;;;;;;;;;;;31.80;44.70;;;;;;5017940;28;19940;-74
2023/06/10 11:37:31;;;;;;;;;;;31.90;44.10;;;;;;4991356;28;20028;-72
2023/06/10 11:39:58;;;;;;;;;;;31.60;44.10;;;;;;5004404;28;20027;-73
2023/06/10 11:42:25;;;;;;;;;;;31.60;44.70;;;;;;4997509;28;22059;-76
2023/06/10 11:44:52;;;;;;;;;;;31.60;44.30;;;;;;5018131;28;19941;-76
2023/06/10 11:47:20;;;;;;;;;;;31.70;44.40;;;;;;5009190;28;20448;-76
2023/06/10 11:49:55;;;;;;;;;;;31.80;44.40;;;;;;5002962;28;19980;-76
2023/06/10 11:52:31;;;;;;;;;;;32.00;43.90;;;;;;5002462;28;19930;-74
2023/06/10 11:54:57;;;;;;;;;;;31.40;44.20;;;;;;4989734;28;19929;-75
2023/06/10 11:57:24;;;;;;;;;;;31.00;45.00;;;;;;5007445;28;20020;-75
2023/06/10 11:59:51;;;;;;;;;;;30.90;45.40;;;;;;5001817;28;20601;-75
2023/06/10 12:02:19;;;;;;;;;;;30.80;45.90;;;;;;5011095;28;19935;-75
2023/06/10 12:04:46;;;;;;;;;;;30.70;46.80;;;;;;5017019;28;20282;-75
2023/06/10 12:07:22;;;;;;;;;;;30.70;46.00;;;;;;5010473;28;20003;-75
2023/06/10 12:09:59;;;;;;;;;;;30.80;45.20;;;;;;5006407;28;19932;-75
2023/06/10 12:12:37;;;;;;;;;;;30.80;45.90;;;;;;5000141;28;19987;-75
2023/06/10 12:15:05;;;;;;;;;;;30.60;47.60;;;;;;5018300;28;20044;-75
2023/06/10 12:17:32;;;;;;;;;;;30.80;46.40;;;;;;5021644;28;19940;-75
2023/06/10 12:20:00;;;;;;;;;;;30.70;46.90;;;;;;5024767;28;19929;-75
2023/06/10 12:22:35;;;;;;;;;;;30.90;45.90;;;;;;5005718;28;19929;-75
2023/06/10 12:25:03;;;;;;;;;;;30.90;47.10;;;;;;5017401;28;19935;-75
2023/06/10 12:27:31;;;;;;;;;;;31.00;45.50;;;;;;5006991;28;20382;-75
2023/06/10 12:30:01;;;;;;;;;;;30.80;46.20;;;;;;4989578;28;19935;-75
2023/06/10 12:32:44;;;;;;;;;;;30.50;45.70;;;;;;5030467;28;19929;-75
2023/06/10 12:35:12;;;;;;;;;;;29.80;46.80;;;;;;5006029;28;19932;-75
2023/06/10 12:37:40;;;;;;;;;;;29.50;49.20;;;;;;5006650;28;19954;-75
2023/06/10 12:40:09;;;;;;;;;;;29.70;48.60;;;;;;5021309;28;19933;-75
2023/06/10 12:42:37;;;;;;;;;;;29.70;47.40;;;;;;4989875;28;19936;-75
2023/06/10 12:45:05;;;;;;;;;;;29.70;47.90;;;;;;5018927;28;19930;-75
2023/06/10 12:47:38;;;;;;;;;;;29.60;48.00;;;;;;5005704;28;19940;-75
2023/06/10 12:50:06;;;;;;;;;;;29.50;48.50;;;;;;5007033;28;19929;-75
2023/06/10 12:52:32;;;;;;;;;;;29.40;48.50;;;;;;5006953;28;19933;-75
2023/06/10 12:55:00;;;;;;;;;;;29.40;48.50;;;;;;4998090;28;19975;-75
2023/06/10 12:57:27;;;;;;;;;;;29.40;49.00;;;;;;5000869;28;19949;-75
2023/06/10 12:59:57;;;;;;;;;;;29.40;48.50;;;;;;5028298;28;19930;-75
2023/06/10 13:02:24;;;;;;;;;;;29.20;48.30;;;;;;5012927;28;19972;-75
2023/06/10 13:04:51;;;;;;;;;;;29.40;49.60;;;;;;5007628;28;19930;-75
2023/06/10 13:07:18;;;;;;;;;;;29.40;47.00;;;;;;5011015;28;20042;-75
2023/06/10 13:09:48;;;;;;;;;;;29.40;48.40;;;;;;4996746;28;19930;-74
2023/06/10 13:12:17;;;;;;;;;;;29.40;48.80;;;;;;4982359;28;19933;-75
2023/06/10 13:14:50;;;;;;;;;;;29.20;48.60;;;;;;5025836;28;19935;-75
2023/06/10 13:17:17;;;;;;;;;;;29.20;48.40;;;;;;5006629;28;19936;-75
2023/06/10 13:19:44;;;;;;;;;;;28.90;48.90;;;;;;5006167;28;20594;-75
2023/06/10 13:22:10;;;;;;;;;;;29.00;48.80;;;;;;5014621;28;20012;-75
2023/06/10 13:24:40;;;;;;;;;;;29.40;48.00;;;;;;5006216;28;20036;-75
2023/06/10 13:27:07;;;;;;;;;;;29.50;47.30;;;;;;5004727;28;19976;-75
2023/06/10 13:29:34;;;;;;;;;;;29.40;47.70;;;;;;5004483;28;19937;-75
2023/06/10 13:32:00;;;;;;;;;;;29.50;47.90;;;;;;5004428;28;20011;-75
2023/06/10 13:34:28;;;;;;;;;;;29.50;47.60;;;;;;5014666;28;19935;-75
2023/06/10 13:36:54;;;;;;;;;;;29.50;46.80;;;;;;5006628;28;19929;-75
2023/06/10 13:39:21;;;;;;;;;;;29.40;47.70;;;;;;5005060;28;20013;-75
2023/06/10 13:41:48;;;;;;;;;;;29.10;47.20;;;;;;5004382;28;19964;-75
2023/06/10 13:44:15;;;;;;;;;;;29.20;47.30;;;;;;4996975;28;19929;-75
2023/06/10 13:46:41;;;;;;;;;;;29.30;47.00;;;;;;5003952;28;20450;-75
2023/06/10 13:49:08;;;;;;;;;;;29.20;46.80;;;;;;5006628;28;20040;-75
2023/06/10 13:51:35;;;;;;;;;;;28.90;47.20;;;;;;5015187;28;19929;-75
2023/06/10 13:54:02;;;;;;;;;;;29.20;47.40;;;;;;5006720;28;19933;-75
2023/06/10 13:56:29;;;;;;;;;;;28.90;49.30;;;;;;5008944;28;20123;-75
2023/06/10 13:58:55;;;;;;;;;;;29.10;47.60;;;;;;5022121;28;19929;-75
2023/06/10 14:01:22;;;;;;;;;;;29.10;47.00;;;;;;5007079;28;19933;-75
2023/06/10 14:03:49;;;;;;;;;;;29.10;46.70;;;;;;5006231;28;19937;-75
2023/06/10 14:06:18;;;;;;;;;;;29.30;46.60;;;;;;5005308;28;19930;-75
2023/06/10 14:08:45;;;;;;;;;;;29.00;46.80;;;;;;5005882;28;20037;-75
2023/06/10 14:11:12;;;;;;;;;;;28.70;47.90;;;;;;5013358;28;19975;-75
2023/06/10 14:13:39;;;;;;;;;;;28.90;47.70;;;;;;5005348;28;20024;-75
2023/06/10 14:16:06;;;;;;;;;;;28.90;47.40;;;;;;4986851;28;19965;-75
2023/06/10 14:18:33;;;;;;;;;;;29.10;47.20;;;;;;4996936;28;19937;-75
2023/06/10 14:20:59;;;;;;;;;;;28.90;47.50;;;;;;5005075;28;20428;-75
2023/06/10 14:23:26;;;;;;;;;;;28.70;47.10;;;;;;5005119;28;19929;-75
2023/06/10 14:25:53;;;;;;;;;;;28.50;48.10;;;;;;5005246;28;19936;-75
2023/06/10 14:28:20;;;;;;;;;;;28.50;47.90;;;;;;5012528;28;19930;-75
2023/06/10 14:30:46;;;;;;;;;;;28.20;48.30;;;;;;5005241;28;19979;-75